createdAt,value
2022-10-05T00:02:43.202Z,101246.13
2022-10-05T00:05:46.403Z,101244.00
2022-10-05T00:08:49.086Z,101247.66
2022-10-05T00:11:52.422Z,101243.19
2022-10-05T00:15:01.009Z,101243.37
2022-10-05T00:18:13.233Z,101242.66
2022-10-05T00:21:25.555Z,101247.22
2022-10-05T00:24:29.866Z,101247.81
2022-10-05T00:27:36.706Z,101247.16
2022-10-05T00:30:39.948Z,101250.00
2022-10-05T00:33:42.598Z,101253.78
2022-10-05T00:36:46.068Z,101249.16
2022-10-05T00:39:49.768Z,101249.22
2022-10-05T00:43:25.595Z,101254.16
2022-10-05T00:46:54.574Z,101243.91
2022-10-05T00:50:06.293Z,101243.69
2022-10-05T00:53:18.409Z,101245.59
2022-10-05T00:56:37.454Z,101249.22
2022-10-05T01:00:07.218Z,101243.63
2022-10-05T01:03:44.104Z,101248.41
2022-10-05T01:07:11.284Z,101254.88
2022-10-05T01:10:29.487Z,101251.88
2022-10-05T01:14:09.334Z,101251.56
2022-10-05T01:17:29.962Z,101250.56
2022-10-05T01:20:39.619Z,101265.81
2022-10-05T01:23:54.618Z,101268.59
2022-10-05T01:27:09.498Z,101273.22
2022-10-05T01:30:16.362Z,101269.62
2022-10-05T01:33:20.999Z,101265.34
2022-10-05T01:36:53.399Z,101260.81
2022-10-05T01:40:39.012Z,101280.50
2022-10-05T01:43:56.837Z,101283.34
2022-10-05T01:47:10.445Z,101283.25
2022-10-05T01:50:42.003Z,101288.31
2022-10-05T01:54:19.899Z,101283.12
2022-10-05T01:58:01.345Z,101268.53
2022-10-05T02:01:15.510Z,101270.22
2022-10-05T02:05:00.361Z,101271.97
2022-10-05T02:08:08.370Z,101266.75
2022-10-05T02:11:14.914Z,101273.81
2022-10-05T02:14:23.022Z,101276.53
2022-10-05T02:17:38.814Z,101277.25
2022-10-05T02:20:43.489Z,101282.84
2022-10-05T02:23:50.531Z,101281.25
2022-10-05T02:26:55.585Z,101282.16
2022-10-05T02:30:03.809Z,101288.72
2022-10-05T02:33:29.965Z,101277.63
2022-10-05T02:36:36.405Z,101286.12
2022-10-05T02:39:42.355Z,101286.81
2022-10-05T02:43:04.503Z,101282.06
2022-10-05T02:46:28.960Z,101287.19
2022-10-05T02:49:50.562Z,101290.78
2022-10-05T02:53:06.828Z,101288.41
2022-10-05T02:56:27.166Z,101291.66
2022-10-05T02:59:35.907Z,101289.19
2022-10-05T03:03:18.965Z,101298.81
2022-10-05T03:06:27.367Z,101286.16
2022-10-05T03:09:37.415Z,101286.28
2022-10-05T03:13:17.303Z,101283.59
2022-10-05T03:16:36.158Z,101274.44
2022-10-05T03:19:45.397Z,101281.06
2022-10-05T03:22:56.036Z,101273.84
2022-10-05T03:26:14.566Z,101277.56
2022-10-05T03:29:44.631Z,101285.25
2022-10-05T03:32:55.326Z,101281.03
2022-10-05T03:36:19.682Z,101277.41
2022-10-05T03:39:37.539Z,101268.22
2022-10-05T03:43:21.106Z,101270.69
2022-10-05T03:47:01.543Z,101270.22
2022-10-05T03:50:30.879Z,101265.91
2022-10-05T03:54:03.833Z,101268.31
2022-10-05T03:57:12.354Z,101272.81
2022-10-05T04:00:19.941Z,101285.38
2022-10-05T04:03:29.221Z,101278.06
2022-10-05T04:06:47.730Z,101284.59
2022-10-05T04:09:53.257Z,101286.62
2022-10-05T04:13:34.000Z,101283.97
2022-10-05T04:16:47.322Z,101295.25
2022-10-05T04:20:29.112Z,101288.56
2022-10-05T04:23:55.237Z,101301.44
2022-10-05T04:27:03.341Z,101294.94
2022-10-05T04:30:14.016Z,101298.50
2022-10-05T04:33:17.438Z,101300.94
2022-10-05T04:36:36.358Z,101289.59
2022-10-05T04:39:49.725Z,101287.91
2022-10-05T04:42:59.061Z,101300.72
2022-10-05T04:46:17.430Z,101294.87
2022-10-05T04:49:49.607Z,101303.56
2022-10-05T04:53:16.766Z,101303.81
2022-10-05T04:56:33.881Z,101301.47
2022-10-05T05:00:08.742Z,101300.22
2022-10-05T05:03:19.590Z,101304.50
2022-10-05T05:06:50.686Z,101295.38
2022-10-05T05:09:57.381Z,101293.12
2022-10-05T05:13:19.797Z,101296.56
2022-10-05T05:16:31.975Z,101309.47
2022-10-05T05:20:01.874Z,101314.31
2022-10-05T05:23:04.948Z,101313.97
2022-10-05T05:26:17.085Z,101303.38
2022-10-05T05:30:02.479Z,101304.03
2022-10-05T05:33:15.930Z,101300.91
2022-10-05T05:36:39.779Z,101308.59
2022-10-05T05:40:12.400Z,101313.12
2022-10-05T05:43:55.464Z,101303.50
2022-10-05T05:47:05.064Z,101314.53
2022-10-05T05:50:33.807Z,101322.28
2022-10-05T05:54:15.688Z,101336.78
2022-10-05T05:57:28.215Z,101335.31
2022-10-05T06:01:00.496Z,101331.44
2022-10-05T06:04:53.012Z,101331.69
2022-10-05T06:08:00.523Z,101338.53
2022-10-05T06:11:18.547Z,101349.06
2022-10-05T06:14:37.750Z,101359.53
2022-10-05T06:17:48.375Z,101355.84
2022-10-05T06:21:03.810Z,101365.78
2022-10-05T06:24:19.195Z,101369.50
2022-10-05T06:27:34.305Z,101372.00
2022-10-05T06:30:54.453Z,101390.63
2022-10-05T06:34:40.144Z,101393.72
2022-10-05T09:40:01.547Z,101414.31
2022-10-05T09:43:44.235Z,101416.94
2022-10-05T09:47:01.837Z,101430.06
2022-10-05T09:50:31.133Z,101427.31
2022-10-05T09:54:12.887Z,101417.91
2022-10-05T09:57:28.305Z,101424.44
2022-10-05T10:01:29.300Z,101418.78
2022-10-05T10:05:04.236Z,101416.94
2022-10-05T10:08:38.086Z,101412.09
2022-10-05T10:12:03.156Z,101425.12
2022-10-05T10:15:24.078Z,101416.87
2022-10-05T10:18:52.543Z,101423.37
2022-10-05T10:22:17.329Z,101412.47
2022-10-05T10:25:56.652Z,101410.97
2022-10-05T10:29:31.269Z,101412.69
2022-10-05T10:32:40.625Z,101410.06
2022-10-05T10:36:00.497Z,101411.69
2022-10-05T10:39:34.330Z,101411.56
2022-10-05T10:43:02.176Z,101406.19
2022-10-05T10:46:53.955Z,101404.94
2022-10-05T10:50:18.864Z,101404.09
2022-10-05T10:54:02.640Z,101407.91
2022-10-05T10:57:38.147Z,101411.88
2022-10-05T11:01:27.087Z,101421.97
2022-10-05T11:04:49.554Z,101419.38
2022-10-05T11:08:10.609Z,101412.66
2022-10-05T11:11:36.362Z,101410.75
2022-10-05T11:15:14.876Z,101404.28
2022-10-05T11:18:30.750Z,101403.78
2022-10-05T11:21:55.516Z,101400.94
2022-10-05T11:25:22.893Z,101391.56
2022-10-05T11:28:40.661Z,101386.16
2022-10-05T11:32:06.078Z,101375.87
2022-10-05T11:35:19.194Z,101380.47
2022-10-05T11:38:43.108Z,101369.66
2022-10-05T11:42:21.464Z,101369.97
2022-10-05T11:45:31.870Z,101360.91
2022-10-05T11:48:44.029Z,101360.28
2022-10-05T11:52:13.007Z,101366.03
2022-10-05T11:55:15.929Z,101370.31
2022-10-05T11:58:37.215Z,101367.69
2022-10-05T12:02:08.061Z,101362.66
2022-10-05T12:05:24.958Z,101357.03
2022-10-05T12:08:46.094Z,101350.53
2022-10-05T12:12:07.741Z,101354.34
2022-10-05T12:15:31.839Z,101345.03
2022-10-05T12:18:39.228Z,101339.63
2022-10-05T12:21:52.376Z,101337.00
2022-10-05T12:25:05.258Z,101331.16
2022-10-05T12:28:15.615Z,101331.94
2022-10-05T12:31:29.130Z,101330.81
2022-10-05T12:35:03.297Z,101330.59
2022-10-05T12:38:44.269Z,101328.47
2022-10-05T12:42:06.539Z,101338.91
2022-10-05T12:45:43.664Z,101329.03
2022-10-05T12:49:19.409Z,101328.37
2022-10-05T12:52:44.961Z,101323.06
2022-10-05T12:56:09.029Z,101329.22
2022-10-05T12:59:41.152Z,101330.44
2022-10-05T13:02:56.326Z,101314.25
2022-10-05T13:06:11.021Z,101320.16
2022-10-05T13:09:42.393Z,101321.00
2022-10-05T13:12:51.601Z,101309.53
2022-10-05T13:16:15.363Z,101307.47
2022-10-05T13:19:30.538Z,101308.31
2022-10-05T13:23:02.266Z,101302.69
2022-10-05T13:26:19.249Z,101303.44
2022-10-05T13:29:27.842Z,101303.38
2022-10-05T13:32:36.137Z,101307.94
2022-10-05T13:35:43.952Z,101296.12
2022-10-05T13:38:53.594Z,101296.34
2022-10-05T13:42:06.830Z,101290.91
2022-10-05T13:45:24.024Z,101287.66
2022-10-05T13:49:10.015Z,101287.03
2022-10-05T13:52:32.951Z,101280.63
2022-10-05T13:56:00.399Z,101284.66
2022-10-05T13:59:19.037Z,101275.16
2022-10-05T14:02:28.781Z,101272.84
2022-10-05T14:05:32.120Z,101278.47
2022-10-05T14:08:53.491Z,101275.53
2022-10-05T14:12:05.487Z,101275.13
2022-10-05T14:15:31.412Z,101268.03
2022-10-05T14:18:37.792Z,101269.88
2022-10-05T14:22:01.198Z,101275.47
2022-10-05T14:25:10.159Z,101261.72
2022-10-05T14:28:12.915Z,101264.81
2022-10-05T14:31:31.712Z,101272.47
2022-10-05T14:34:39.331Z,101263.63
2022-10-05T14:37:48.226Z,101266.22
2022-10-05T14:41:16.456Z,101261.28
2022-10-05T14:44:25.839Z,101265.62
2022-10-05T14:47:31.562Z,101262.06
2022-10-05T14:50:48.110Z,101263.59
2022-10-05T14:54:10.558Z,101264.19
2022-10-05T14:57:35.577Z,101265.19
2022-10-05T15:00:57.017Z,101267.06
2022-10-05T15:04:31.963Z,101266.59
2022-10-05T15:07:41.119Z,101263.84
2022-10-05T15:10:47.358Z,101257.63
2022-10-05T15:13:50.462Z,101254.47
2022-10-05T15:16:56.933Z,101259.59
2022-10-05T15:20:18.493Z,101263.19
2022-10-05T15:23:30.943Z,101258.97
2022-10-05T15:26:56.501Z,101260.31
2022-10-05T15:30:11.747Z,101247.84
2022-10-05T15:33:37.241Z,101251.34
2022-10-05T15:36:48.101Z,101255.72
2022-10-05T15:39:59.743Z,101261.00
2022-10-05T15:43:10.608Z,101255.09
2022-10-05T15:46:23.382Z,101250.28
2022-10-05T15:49:29.422Z,101241.41
2022-10-05T15:52:46.282Z,101238.28
2022-10-05T15:55:55.013Z,101249.72
2022-10-05T15:59:18.557Z,101252.94
2022-10-05T16:02:29.440Z,101229.53
2022-10-05T16:06:26.515Z,101240.09
2022-10-05T16:09:38.479Z,101247.28
2022-10-05T16:12:48.954Z,101247.00
2022-10-05T16:16:12.054Z,101227.41
2022-10-05T16:19:25.212Z,101228.25
2022-10-05T16:23:03.413Z,101232.16
2022-10-05T16:26:24.430Z,101249.44
2022-10-05T16:29:48.698Z,101259.50
2022-10-05T16:33:10.205Z,101252.12
2022-10-05T16:36:33.102Z,101253.72
2022-10-05T16:40:03.283Z,101253.38
2022-10-05T16:43:08.785Z,101252.97
2022-10-05T16:46:37.296Z,101258.91
2022-10-05T16:49:56.358Z,101270.97
2022-10-05T16:53:04.826Z,101272.44
2022-10-05T16:56:14.294Z,101285.03
2022-10-05T16:59:42.965Z,101289.50
2022-10-05T17:03:34.575Z,101285.25
2022-10-05T17:06:54.103Z,101294.91
2022-10-05T17:10:18.883Z,101288.59
2022-10-05T17:13:43.594Z,101287.56
2022-10-05T17:17:20.714Z,101280.56
2022-10-05T17:20:42.457Z,101277.75
2022-10-05T17:24:04.023Z,101280.69
2022-10-05T17:27:31.381Z,101282.59
2022-10-05T17:30:54.506Z,101287.69
2022-10-05T17:34:06.902Z,101291.13
2022-10-05T17:37:32.038Z,101301.34
2022-10-05T17:40:38.460Z,101294.13
2022-10-05T17:44:01.569Z,101301.84
2022-10-05T17:47:08.364Z,101306.91
2022-10-05T17:50:31.109Z,101306.81
2022-10-05T17:53:52.611Z,101307.31
2022-10-05T17:56:58.304Z,101306.00
2022-10-05T18:00:05.418Z,101306.84
2022-10-05T18:03:47.618Z,101304.69
2022-10-05T19:42:49.634Z,101318.34
2022-10-05T19:46:14.081Z,101319.41
2022-10-05T19:49:47.839Z,101325.84
2022-10-05T19:53:11.110Z,101322.84
2022-10-05T19:56:22.545Z,101320.16
2022-10-05T19:59:28.157Z,101315.31
2022-10-05T20:02:31.044Z,101317.19
2022-10-05T20:05:35.197Z,101326.78
2022-10-05T20:08:40.141Z,101321.72
2022-10-05T20:11:50.810Z,101332.94
2022-10-05T20:15:26.820Z,101331.63
2022-10-05T20:19:06.018Z,101330.28
2022-10-05T20:22:32.990Z,101335.63
2022-10-05T20:25:37.196Z,101345.00
2022-10-05T20:28:40.013Z,101343.66
2022-10-05T20:31:45.717Z,101344.41
2022-10-05T20:34:49.416Z,101346.88
2022-10-05T20:37:52.346Z,101337.06
2022-10-05T20:40:54.924Z,101338.91
2022-10-05T20:43:57.802Z,101347.81
2022-10-05T20:47:01.490Z,101353.06
2022-10-05T20:50:10.143Z,101356.00
2022-10-05T20:53:13.180Z,101359.81
2022-10-05T20:56:16.197Z,101361.81
2022-10-05T20:59:18.995Z,101363.75
2022-10-05T21:02:21.926Z,101362.66
2022-10-05T21:05:24.516Z,101369.47
2022-10-05T21:08:27.989Z,101373.13
2022-10-05T21:11:30.845Z,101371.59
2022-10-05T21:14:36.220Z,101371.25
2022-10-05T21:17:38.872Z,101362.50
2022-10-05T21:20:50.058Z,101353.62
2022-10-05T21:23:52.719Z,101352.34
2022-10-05T21:26:57.595Z,101355.25
2022-10-05T21:30:00.812Z,101346.41
2022-10-05T21:33:03.675Z,101348.31
2022-10-05T21:36:06.293Z,101346.91
2022-10-05T21:39:11.941Z,101343.97
2022-10-05T21:42:14.558Z,101344.88
2022-10-05T21:45:17.375Z,101347.25
2022-10-05T21:48:20.414Z,101350.47
2022-10-05T21:51:25.083Z,101353.56
2022-10-05T21:54:28.676Z,101355.13
2022-10-05T21:57:32.386Z,101352.06
2022-10-05T22:00:35.087Z,101354.84
2022-10-05T22:03:38.290Z,101346.78
2022-10-05T22:06:41.243Z,101354.44
2022-10-05T22:09:48.338Z,101346.16
2022-10-05T22:12:51.215Z,101353.00
2022-10-05T22:15:56.756Z,101349.00
2022-10-05T22:19:02.629Z,101349.84
2022-10-05T22:22:08.660Z,101346.97
2022-10-05T22:25:14.802Z,101337.06
2022-10-05T22:28:17.801Z,101336.88
2022-10-05T22:31:20.735Z,101338.81
2022-10-05T22:34:23.715Z,101332.78
2022-10-05T22:37:26.309Z,101330.94
2022-10-05T22:40:30.063Z,101330.44
2022-10-05T22:43:32.582Z,101329.47
2022-10-05T22:46:36.046Z,101333.03
2022-10-05T22:49:38.674Z,101323.34
2022-10-05T22:52:42.574Z,101333.53
2022-10-05T22:55:45.291Z,101324.78
2022-10-05T22:58:48.448Z,101331.06
2022-10-05T23:01:51.063Z,101327.16
2022-10-05T23:04:54.137Z,101323.94
2022-10-05T23:07:56.701Z,101322.09
2022-10-05T23:11:07.632Z,101322.81
2022-10-05T23:14:10.225Z,101321.34
2022-10-05T23:17:13.077Z,101331.56
2022-10-05T23:20:15.670Z,101319.41
2022-10-05T23:23:19.216Z,101325.06
2022-10-05T23:26:24.002Z,101323.72
2022-10-05T23:29:28.665Z,101321.13
2022-10-05T23:32:31.377Z,101322.63
2022-10-05T23:35:34.242Z,101317.22
2022-10-05T23:38:36.880Z,101321.56
2022-10-05T23:41:40.533Z,101312.94
2022-10-05T23:44:43.138Z,101311.13
2022-10-05T23:47:46.229Z,101323.81
2022-10-05T23:50:49.840Z,101311.22
2022-10-05T23:53:55.310Z,101317.47
2022-10-05T23:56:57.909Z,101309.69
